East Texas Regional Airport
KGGG : rendu visible

Aérodrome :











RETROUVEZ-NOUS SUR...

 
LOGIN :

S'inscrire | Disclaimer

   EN    FR    IT 

 









Légende :    VFR   VFR Marginal   IFR   IFR Intensif   IFR Très Intensif
Visi : 
Plafond : 
>= 8 km
>= 3000ft
5 à 8 km
1000 à 3000 ft
1500m à 5 km
500 à 1000 ft
800 à 1500m
200 à 500 ft
< 800m
< 200 ft
Symboles :   Orages  Brouillard  Fortes neiges  Fortes précipitations  Vent > 20 kt






- Altitude de l'aérodrome : 365 ft
- Code IATA : GGG


KGGG - East Texas Regional

DERNIER METAR :
  • 220953Z AUTO 12007KT 10SM RA BKN075 OVC090 02/M01 A3027 RMK AO2 SLP253 P0011 T00221011

METARs EXPIRÉS :
  • 220853Z AUTO 12007KT 10SM -RA SCT070 OVC095 03/M03 A3030 RMK AO2 RAB48 SLP264 P0000 60000 T00331028 58022
  • 220753Z AUTO 12009KT 10SM OVC100 04/M03 A3032 RMK AO2 SLP269 T00391033

TAF KGGG
Valide du 22 à 06h jusqu'au 23 à 06h UTC


220610Z 2206/2306 10008KT P6SM BKN160
FM220800 12007KT P6SM VCSH SCT100 OVC160
FM221000 12008KT P6SM -SHRA OVC060
FM221500 13013KT 4SM -SHRA OVC016
FM221600 13014KT 3SM -SHRA OVC009
FM221800 14013KT 2SM -RA BR OVC004
FM230000 13012KT 1/2SM -RA FG OVC004



MET'MAP, la Météo Aéronautique d'un coup d'oeil ! - Copyright ORBIFLY Décembre 2007 - Disclaimer

ORBIFLY MET'MAP TEAM :

Programmation & Développement : Alexandra Zaïnal
Sur une idée originale de : Baudouin d'Aumeries
Assistance à la programmation : Marc-Olivier Méhu
Soutien technique & logistique : Manuel Goepfert

Contact : metmap@orbifly.com




SOURCES & CREDITS :

   NOAA       Earth
Advisory